Latest Weather Observations for Gold Coast Seaway

IDQ60801

Issued at 1:22 pm EST Saturday 5 December 2020 (issued every 10 minutes, with the page automatically refreshed every 10 minutes)

About weather observations | Map of weather stations | Latest weather observations for QLD | Other Formats
Station Details ID: 040764 Name: GOLD COAST SEAWAY Lat: -27.94 Lon: 153.43 Height: 2.98 m
Data from the previous 72 hours. | See also: Recent months at Gold Coast Seaway
Date/Time
EST
Temp
°C
App
Temp
°C
Dew
Point
°C
Rel
Hum
%
Delta-T
°C
Wind Press
QNH
hPa
Press
MSL
hPa
Rain since
9am
mm
Dir  Spd
km/h
Gust
km/h
Spd
kts
Gust
kts
05/01:00pm 29.0 28.8 21.2 62 5.2 NNE 24 32 13 17 1011.4 1011.4 0.0
05/12:30pm 29.6 29.4 21.3 61 5.6 NNE 24 35 13 19 1011.8 1011.8 0.0
05/12:00pm 29.5 29.3 21.2 61 5.5 NNE 24 32 13 17 1012.0 1012.0 0.0
05/11:30am 29.3 28.9 21.0 61 5.5 NNE 24 30 13 16 1012.4 1012.4 0.0
05/11:00am 29.5 30.1 21.4 61 5.4 NNE 20 26 11 14 1012.7 1012.7 0.0
05/10:30am 28.9 29.7 21.4 64 5.0 NNE 19 26 10 14 1013.1 1013.1 0.0
05/10:00am 28.6 29.6 21.1 64 5.0 NNE 17 22 9 12 1013.4 1013.4 0.0
05/09:30am 28.8 30.5 21.6 65 4.8 NNE 15 19 8 10 1013.6 1013.6 0.0
05/09:00am 27.5 29.7 21.8 71 3.8 NE 13 17 7 9 1014.1 1014.1 0.0
05/08:30am 25.8 27.3 21.2 76 3.0 NE 15 19 8 10 1014.2 1014.2 0.0
05/08:00am 25.7 27.5 21.1 76 3.0 NE 13 17 7 9 1014.3 1014.3 0.0
05/07:30am 25.7 28.4 21.4 77 2.8 NNE 9 13 5 7 1014.1 1014.1 0.0
05/07:00am 25.0 27.2 21.1 79 2.6 NNE 11 15 6 8 1014.0 1014.0 0.0
05/06:30am 24.5 27.0 21.0 81 2.3 NNE 9 13 5 7 1013.7 1013.7 0.0
05/06:00am 24.3 26.4 21.0 82 2.2 NNE 11 15 6 8 1013.1 1013.1 0.0
05/05:30am 23.9 25.9 20.8 83 2.0 NNE 11 15 6 8 1012.7 1012.7 0.0
05/05:00am 23.6 25.9 20.7 84 1.9 NNE 9 11 5 6 1012.4 1012.4 0.0
05/04:30am 23.5 25.8 20.6 84 1.9 NNE 9 15 5 8 1012.2 1012.2 0.0
05/04:00am 23.7 26.1 20.8 84 1.9 NNE 9 11 5 6 1012.0 1012.0 0.0
05/03:30am 23.6 25.6 20.7 84 1.9 N 11 15 6 8 1011.7 1011.7 0.0
05/03:00am 23.9 26.3 20.8 83 2.0 N 9 11 5 6 1011.7 1011.7 0.0
05/02:30am 23.8 26.0 20.5 82 2.1 N 9 11 5 6 1011.5 1011.5 0.0
05/02:00am 23.9 26.2 20.6 82 2.2 N 9 11 5 6 1011.8 1011.8 0.0
05/01:30am 23.9 26.6 20.6 82 2.2 N 7 13 4 7 1012.0 1012.0 0.0
05/01:00am 23.9 26.2 20.6 82 2.2 N 9 15 5 8 1011.9 1011.9 0.0
05/12:30am 24.1 27.3 20.6 81 2.3 N 4 7 2 4 1012.2 1012.2 0.0
05/12:00am 24.3 27.3 20.8 81 2.3 N 6 9 3 5 1012.9 1012.9 0.0
 
Date/Time
EST
Temp
°C
App
Temp
°C
Dew
Point
°C
Rel
Hum
%
Delta-T
°C
Wind Press
QNH
hPa
Press
MSL
hPa
Rain since
9am
mm
Dir  Spd
km/h
Gust
km/h
Spd
kts
Gust
kts
04/11:30pm 24.1 26.9 20.8 82 2.2 NW 7 13 4 7 1013.2 1013.2 0.0
04/11:00pm 24.3 26.8 21.0 82 2.2 N 9 15 5 8 1012.9 1012.9 0.0
04/10:30pm 24.5 26.2 21.0 81 2.3 N 13 19 7 10 1013.1 1013.1 0.0
04/10:00pm 24.6 26.9 20.7 79 2.5 NNE 9 13 5 7 1013.6 1013.6 0.0
04/09:30pm 25.1 27.0 20.6 76 2.9 N 11 17 6 9 1013.3 1013.3 0.0
04/09:00pm 25.1 27.5 20.8 77 2.8 N 9 13 5 7 1013.2 1013.2 0.0
04/08:30pm 25.0 27.3 20.7 77 2.8 NNW 9 17 5 9 1013.0 1013.0 0.0
04/08:00pm 24.7 26.1 21.0 80 2.4 N 15 26 8 14 1012.3 1012.3 0.0
04/07:30pm 25.0 26.4 21.1 79 2.6 NNE 15 20 8 11 1012.6 1012.6 0.0
04/07:00pm 24.9 26.0 21.2 80 2.4 NNE 17 22 9 12 1012.1 1012.1 0.0
04/06:30pm 25.1 26.1 21.0 78 2.7 NNE 17 22 9 12 1011.4 1011.4 0.0
04/06:00pm 25.3 25.7 21.0 77 2.8 NNE 20 28 11 15 1010.9 1010.9 0.0
04/05:30pm 26.0 26.4 21.0 74 3.3 NNE 20 28 11 15 1010.8 1010.8 0.0
04/05:00pm 26.9 26.7 21.2 71 3.8 NNE 24 35 13 19 1010.5 1010.5 0.0
04/04:30pm 27.1 26.5 21.2 70 3.9 NNE 26 33 14 18 1010.3 1010.3 0.0
04/04:00pm 27.4 27.0 21.0 68 4.2 NNE 24 35 13 19 1010.2 1010.2 0.0
04/03:30pm 27.5 26.7 20.8 67 4.4 NNE 26 37 14 20 1010.2 1010.2 0.0
04/03:00pm 28.1 27.5 20.6 63 5.0 NNE 24 33 13 18 1010.7 1010.7 0.0
04/02:30pm 28.2 28.2 21.0 65 4.8 NNE 22 33 12 18 1011.0 1011.0 0.0
04/02:00pm 28.7 28.5 21.2 64 5.0 NNE 24 30 13 16 1011.2 1011.2 0.0
04/01:30pm 29.6 29.9 21.5 61 5.4 NNE 22 28 12 15 1011.8 1011.8 0.0
04/01:00pm 29.8 30.1 20.4 57 6.2 NNE 19 24 10 13 1012.1 1012.1 0.0
04/12:30pm 30.7 30.9 20.6 54 6.7 NNE 20 28 11 15 1012.4 1012.4 0.0
04/12:00pm 29.1 30.1 20.3 59 5.8 NNE 15 20 8 11 1012.8 1012.8 0.0
04/11:30am 31.0 32.3 20.9 55 6.7 NNE 15 20 8 11 1013.2 1013.2 0.0
04/11:00am 29.6 29.6 19.0 53 6.9 NNW 17 28 9 15 1013.5 1013.5 0.0
04/10:30am 29.3 29.5 19.3 55 6.5 NW 17 28 9 15 1014.0 1014.0 0.0
04/10:00am 28.6 28.6 19.8 59 5.7 NW 19 28 10 15 1014.6 1014.6 0.0
04/09:30am 27.6 27.1 20.7 66 4.6 NW 24 35 13 19 1014.7 1014.7 0.0
04/09:00am 26.0 26.3 20.8 73 3.4 NW 20 32 11 17 1015.5 1015.5 0.2
04/08:30am 25.3 25.6 20.3 74 3.3 NW 19 26 10 14 1016.0 1016.0 0.2
04/08:00am 24.6 25.5 20.9 80 2.4 NW 17 24 9 13 1016.5 1016.5 0.2
04/07:30am 24.1 25.7 20.8 82 2.2 NW 13 20 7 11 1016.7 1016.7 0.2
04/07:00am 23.7 26.1 20.8 84 1.9 NW 9 17 5 9 1017.2 1017.2 0.2
04/06:30am 23.0 24.6 20.7 87 1.5 NNW 13 19 7 10 1017.1 1017.1 0.2
04/06:00am 23.2 25.9 20.7 86 1.6 NE 7 15 4 8 1016.8 1016.8 0.2
04/05:30am 22.8 24.6 20.3 86 1.6 WNW 11 17 6 9 1017.5 1017.5 0.2
04/05:00am 22.8 24.7 20.5 87 1.5 W 11 15 6 8 1018.0 1018.0 0.2
04/04:30am 23.0 25.6 20.5 86 1.6 W 7 13 4 7 1018.2 1018.2 0.2
04/04:00am 23.5 26.5 20.8 85 1.8 SSW 6 7 3 4 1018.0 1018.0 0.0
04/03:30am 23.6 26.4 20.9 85 1.8 SE 7 9 4 5 1018.0 1018.0 0.0
04/03:00am 23.8 26.8 20.9 84 1.9 SSE 6 9 3 5 1018.0 1018.0 0.0
04/02:30am 23.6 25.9 20.7 84 1.9 SE 9 13 5 7 1018.1 1018.1 0.0
04/02:00am 23.7 26.1 20.8 84 1.9 SE 9 11 5 6 1018.1 1018.1 0.0
04/01:30am 23.6 26.1 20.3 82 2.1 SSE 7 11 4 6 1018.5 1018.5 0.0
04/01:00am 23.6 26.1 20.3 82 2.1 SSE 7 9 4 5 1018.7 1018.7 0.0
04/12:30am 23.7 27.6 20.4 82 2.1 CALM 0 0 0 0 1018.8 1018.8 0.0
04/12:00am 23.5 27.2 20.0 81 2.3 CALM 0 0 0 0 1019.0 1019.0 0.0
 
Date/Time
EST
Temp
°C
App
Temp
°C
Dew
Point
°C
Rel
Hum
%
Delta-T
°C
Wind Press
QNH
hPa
Press
MSL
hPa
Rain since
9am
mm
Dir  Spd
km/h
Gust
km/h
Spd
kts
Gust
kts
03/11:30pm 23.6 27.5 20.3 82 2.1 CALM 0 0 0 0 1018.9 1018.9 0.0
03/11:00pm 23.6 27.6 20.5 83 2.0 CALM 0 0 0 0 1019.0 1019.0 0.0
03/10:30pm 23.1 25.9 19.7 81 2.2 SSE 4 7 2 4 1019.3 1019.3 0.0
03/10:00pm 23.4 27.1 20.0 81 2.2 CALM 0 0 0 0 1019.1 1019.1 0.0
03/09:30pm 23.9 27.8 20.4 81 2.3 CALM 0 0 0 0 1018.8 1018.8 0.0
03/09:00pm 24.2 28.4 20.9 82 2.2 CALM 0 0 0 0 1018.7 1018.7 0.0
03/08:30pm 24.3 27.5 21.2 83 2.0 E 6 6 3 3 1018.7 1018.7 0.0
03/08:00pm 24.3 27.4 21.0 82 2.2 ENE 6 7 3 4 1018.7 1018.7 0.0
03/07:30pm 24.5 27.5 21.2 82 2.2 ESE 7 9 4 5 1019.1 1019.1 0.0
03/07:00pm 24.5 27.5 21.2 82 2.2 SE 7 9 4 5 1019.0 1019.0 0.0
03/06:30pm 24.7 27.3 21.2 81 2.3 SE 9 11 5 6 1018.4 1018.4 0.0
03/06:00pm 24.9 27.4 21.0 79 2.6 ESE 9 11 5 6 1018.1 1018.1 0.0
03/05:30pm 25.3 27.4 21.0 77 2.8 E 11 15 6 8 1017.6 1017.6 0.0
03/05:00pm 25.4 27.3 21.3 78 2.7 E 13 15 7 8 1017.6 1017.6 0.0
03/04:30pm 25.6 27.8 21.1 76 3.0 E 11 13 6 7 1017.7 1017.7 0.0
03/04:00pm 25.8 27.9 21.0 75 3.2 E 11 13 6 7 1017.5 1017.5 0.0
03/03:30pm 26.0 27.7 21.0 74 3.3 ESE 13 13 7 7 1017.5 1017.5 0.0
03/03:00pm 26.1 27.9 20.4 71 3.7 ESE 11 13 6 7 1017.6 1017.6 0.0
03/02:30pm 26.6 28.6 20.7 70 3.9 ESE 11 13 6 7 1017.7 1017.7 0.0
03/02:00pm 26.8 29.0 21.1 71 3.8 E 11 13 6 7 1018.0 1018.0 0.0
03/01:30pm 26.0 27.7 21.0 74 3.3 ESE 13 15 7 8 1018.3 1018.3 0.0
03/01:00pm 26.1 28.5 20.9 73 3.4 ESE 9 11 5 6 1018.6 1018.6 0.0
03/12:30pm 26.4 28.4 21.6 75 3.2 ESE 13 15 7 8 1018.8 1018.8 0.0
03/12:00pm 26.2 27.2 21.8 77 2.9 ESE 19 20 10 11 1019.1 1019.1 0.0
03/11:30am 24.9 26.7 21.2 80 2.4 E 13 17 7 9 1019.3 1019.3 0.0
03/11:00am 25.4 27.0 21.5 79 2.6 ESE 15 17 8 9 1019.5 1019.5 0.0
03/10:30am 24.8 27.8 21.3 81 2.3 SE 7 9 4 5 1019.6 1019.6 0.0
03/10:00am 24.1 27.1 21.2 84 1.9 SE 7 9 4 5 1019.6 1019.6 0.0
03/09:30am 23.7 26.4 20.6 83 2.0 SE 7 9 4 5 1019.9 1019.9 0.0
03/09:00am 23.8 26.2 20.9 84 1.9 E 9 11 5 6 1020.0 1020.0 0.0
03/08:30am 23.6 25.6 20.7 84 1.9 E 11 13 6 7 1019.9 1019.9 0.0
03/08:00am 23.7 25.3 20.8 84 1.9 SE 13 17 7 9 1019.9 1019.9 0.0
03/07:30am 23.3 24.4 20.4 84 1.9 SSE 15 19 8 10 1020.0 1020.0 0.0
03/07:00am 23.1 23.9 20.6 86 1.6 SSE 17 24 9 13 1019.9 1019.9 0.0
03/06:30am 22.5 22.8 20.4 88 1.4 SSE 19 24 10 13 1019.8 1019.8 0.0
03/06:00am 22.6 21.5 20.3 87 1.5 SE 26 30 14 16 1019.8 1019.8 0.0
03/05:30am 22.6 21.4 20.1 86 1.6 SE 26 33 14 18 1019.4 1019.4 0.0
03/05:00am 22.8 21.3 20.3 86 1.6 SE 28 32 15 17 1018.9 1018.9 0.0
03/04:30am 23.4 24.0 21.3 88 1.4 ESE 20 28 11 15 1018.6 1018.6 0.0
03/04:00am 23.3 24.8 21.2 88 1.4 ESE 15 17 8 9 1018.6 1018.6 0.0
03/03:30am 23.2 24.2 21.1 88 1.4 E 17 19 9 10 1018.3 1018.3 0.0
03/03:00am 22.9 24.9 20.8 88 1.4 ENE 11 13 6 7 1018.5 1018.5 0.0
03/02:30am 22.6 25.0 20.1 86 1.6 NE 7 11 4 6 1018.8 1018.8 0.0
03/02:00am 22.7 26.1 20.2 86 1.6 ENE 2 6 1 3 1019.2 1019.2 0.0
03/01:30am 23.0 26.2 20.5 86 1.6 SSE 4 6 2 3 1019.4 1019.4 0.0
03/01:00am 23.0 25.8 20.5 86 1.6 SSE 6 9 3 5 1019.9 1019.9 0.0
03/12:30am 23.1 24.7 20.8 87 1.5 SE 13 17 7 9 1020.1 1020.1 0.0
03/12:00am 23.7 26.0 21.4 87 1.5 SSE 11 15 6 8 1019.9 1019.9 0.0
 
Date/Time
EST
Temp
°C
App
Temp
°C
Dew
Point
°C
Rel
Hum
%
Delta-T
°C
Wind Press
QNH
hPa
Press
MSL
hPa
Rain since
9am
mm
Dir  Spd
km/h
Gust
km/h
Spd
kts
Gust
kts
02/11:30pm 24.0 26.2 21.9 88 1.4 S 13 17 7 9 1020.2 1020.2 0.0
02/11:00pm 22.9 25.1 20.4 86 1.6 SSE 9 13 5 7 1019.9 1019.9 0.0
02/10:30pm 23.0 23.6 20.3 85 1.7 SE 17 19 9 10 1019.6 1019.6 0.0
02/10:00pm 23.6 25.6 20.7 84 1.9 SSE 11 13 6 7 1020.1 1020.1 0.0
02/09:30pm 24.1 26.8 21.4 85 1.8 S 9 15 5 8 1020.2 1020.2 0.0
02/09:00pm 23.4 26.0 20.5 84 1.9 S 7 13 4 7 1019.8 1019.8 0.0
02/08:30pm 23.5 27.5 20.6 84 1.9 CALM 0 0 0 0 1019.3 1019.3 0.0
02/08:00pm 23.5 25.7 20.4 83 2.0 E 9 11 5 6 1018.1 1018.1 0.0
02/07:30pm 24.5 26.0 21.2 82 2.2 NE 15 19 8 10 1017.4 1017.4 0.0
02/07:00pm 24.7 26.5 21.2 81 2.3 NE 13 17 7 9 1017.2 1017.2 0.0
02/06:30pm 24.9 26.1 21.4 81 2.3 NNE 17 20 9 11 1017.1 1017.1 0.0
02/06:00pm 25.2 26.0 21.7 81 2.3 NE 20 30 11 16 1016.3 1016.3 0.0
02/05:30pm 24.9 26.3 21.0 79 2.6 NNE 15 22 8 12 1015.0 1015.0 0.0
02/05:00pm 25.6 27.0 21.1 76 3.0 NNE 15 20 8 11 1014.5 1014.5 0.0
02/04:30pm 26.4 27.3 20.9 72 3.6 NNE 17 22 9 12 1014.3 1014.3 0.0
02/04:00pm 27.8 28.8 21.1 67 4.4 NNE 17 22 9 12 1013.7 1013.7 0.0
02/03:30pm 27.5 28.4 20.8 67 4.4 N 17 26 9 14 1013.6 1013.6 0.0
02/03:00pm 27.7 28.1 21.0 67 4.4 NNE 20 28 11 15 1013.8 1013.8 0.0
02/02:30pm 28.1 28.7 21.1 65 4.6 NNE 19 24 10 13 1014.3 1014.3 0.0
02/02:00pm 28.2 28.6 21.0 65 4.8 NNE 20 28 11 15 1014.5 1014.5 0.0
02/01:30pm 29.4 30.3 21.9 64 5.1 NNE 20 26 11 14 1015.0 1015.0 0.0

Other formats

Comma delimited format used in spreadsheet applications
http://www.bom.gov.au/fwo/IDQ60801/IDQ60801.94580.axf

JavaScript Object Notation format (JSON) in row-major order
http://www.bom.gov.au/fwo/IDQ60801/IDQ60801.94580.json

Data quality

Most of these data are generated automatically and are frequently updated. Quality checks on data are not normally performed. It is possible for incorrect values to appear. Refer to information at About Latest Weather Observations and please check the disclaimer before using these data.